Weather History for Glenwood, MN

Change the Weather History Date:

Tuesday, September 4, 2012

  Actual Average Record
Temperature  
Mean Temperature 70 °F -  
Max Temperature 84 °F 76 °F 96 °F (2007)
Min Temperature 55 °F 51 °F 34 °F (1956)
Cooling Degree Days 4    
Growing Degree Days 20 (Base 50)    
Moisture  
Dew Point 48 °F    
Average Humidity 51    
Maximum Humidity 82    
Minimum Humidity 18    
Precipitation  
Precipitation 0.00 in - - ()
Sea Level Pressure  
Sea Level Pressure 29.84 in    
Wind  
Wind Speed 7 mph (NW)    
Max Wind Speed 13 mph    
Max Gust Speed 16 mph    
Visibility 10 miles    
Events Thunderstorm    
Averages and records for this station are not official NWS values.
T = Trace of Precipitation, MM = Missing Value Source: NWS Daily Summary

Daily Weather History Graph

Daily Weather History Graph

Search for Another Location

Airport:

Trip Planner

Search our weather history database for the weather conditions in past years. The results will help you decide how hot, cold, wet, or windy it might be!

Date:

Astronomy

Sep. 04, 2012 Rise Set
Actual Time 6:46 AM CDT 7:52 PM CDT
Civil Twilight 6:16 AM CDT 8:22 PM CDT
Nautical Twilight 5:39 AM CDT 8:59 PM CDT
Astronomical Twilight 5:01 AM CDT 9:37 PM CDT
Moon 9:28 PM CDT (9/4) 11:10 AM CDT (9/4)
Length of Visible Light 14h 06m
Length of Day
13h 05m
Waning Gibbous, 83% of the Moon is Illuminated
Sep 4
Waning Gibbous
Sep 8
Last Quarter
Sep 15
New
Sep 22
First Quarter
Sep 29
Full

Hourly Weather History & Observations

Time (CDT) Temp. Dew Point Humidity Pressure Visibility Wind Dir Wind Speed Gust Speed Precip Events Conditions
12:14 AM 64.4 °F 48.2 °F 56% 29.87 in 10.0 mi ESE 5.8 mph - N/A   Clear
12:53 AM 64.4 °F 48.2 °F 56% 29.87 in 10.0 mi ESE 6.9 mph - N/A Thunderstorm Clear
1:14 AM 64.4 °F 48.2 °F 56% 29.87 in 10.0 mi ESE 5.8 mph - N/A Thunderstorm Thunderstorm
1:33 AM 62.6 °F 48.2 °F 59% 29.87 in 10.0 mi East 8.1 mph - N/A Thunderstorm Clear
1:53 AM 64.4 °F 48.2 °F 56% 29.86 in 10.0 mi ESE 8.1 mph - N/A Thunderstorm Thunderstorm
2:14 AM 62.6 °F 46.4 °F 55% 29.85 in 10.0 mi SE 5.8 mph - N/A   Clear
2:33 AM 64.4 °F 46.4 °F 52% 29.84 in 10.0 mi ESE 8.1 mph - N/A   Clear
2:53 AM 64.4 °F 48.2 °F 56% 29.84 in 10.0 mi SE 8.1 mph - N/A   Clear
3:14 AM 64.4 °F 48.2 °F 56% 29.84 in 10.0 mi SE 9.2 mph - N/A   Clear
3:33 AM 64.4 °F 48.2 °F 56% 29.84 in 10.0 mi SE 6.9 mph - N/A   Clear
3:53 AM 62.6 °F 50.0 °F 63% 29.84 in 10.0 mi East 4.6 mph - N/A Thunderstorm Clear
4:13 AM 60.8 °F 50.0 °F 68% 29.85 in 10.0 mi Calm Calm - N/A   Clear
4:33 AM 60.8 °F 50.0 °F 68% 29.85 in 10.0 mi NE 6.9 mph - N/A   Clear
4:53 AM 59.0 °F 51.8 °F 77% 29.86 in 10.0 mi NE 3.5 mph - N/A   Clear
5:13 AM 57.2 °F 50.0 °F 77% 29.85 in 10.0 mi ENE 5.8 mph - N/A   Clear
5:33 AM 57.2 °F 50.0 °F 77% 29.85 in 10.0 mi NE 4.6 mph - N/A   Clear
5:53 AM 57.2 °F 50.0 °F 77% 29.85 in 10.0 mi East 8.1 mph - N/A   Clear
6:13 AM 55.4 °F 50.0 °F 82% 29.85 in 10.0 mi East 3.5 mph - N/A   Clear
6:33 AM 55.4 °F 48.2 °F 77% 29.84 in 10.0 mi ESE 5.8 mph - N/A   Clear
6:54 AM 55.4 °F 48.2 °F 77% 29.84 in 10.0 mi Calm Calm - N/A   Clear
7:13 AM 55.4 °F 50.0 °F 82% 29.84 in 10.0 mi SE 4.6 mph - N/A   Clear
7:33 AM 55.4 °F 50.0 °F 82% 29.84 in 10.0 mi Calm Calm - N/A   Clear
7:54 AM 59.0 °F 51.8 °F 77% 29.84 in 10.0 mi Calm Calm - N/A   Clear
8:13 AM 62.6 °F 55.4 °F 77% 29.84 in 10.0 mi SW 5.8 mph - N/A   Clear
8:33 AM 66.2 °F 57.2 °F 73% 29.84 in 10.0 mi WSW 10.4 mph - N/A   Clear
8:54 AM 68.0 °F 57.2 °F 68% 29.84 in 10.0 mi WSW 11.5 mph - N/A   Clear
9:13 AM 69.8 °F 57.2 °F 64% 29.84 in 10.0 mi WSW 12.7 mph - N/A   Clear
9:33 AM 69.8 °F 57.2 °F 64% 29.84 in 10.0 mi WSW 10.4 mph - N/A   Clear
9:54 AM 71.6 °F 55.4 °F 57% 29.85 in 10.0 mi West 10.4 mph - N/A   Clear
10:13 AM 71.6 °F 55.4 °F 57% 29.85 in 10.0 mi WSW 12.7 mph - N/A   Clear
10:33 AM 73.4 °F 55.4 °F 53% 29.85 in 10.0 mi West 11.5 mph - N/A   Clear
10:53 AM 73.4 °F 55.4 °F 53% 29.85 in 10.0 mi West 12.7 mph - N/A   Clear
11:33 AM 75.2 °F 53.6 °F 47% 29.85 in 10.0 mi West 12.7 mph 16.1 mph N/A   Clear
11:54 AM 77.0 °F 53.6 °F 44% 29.85 in 10.0 mi West 11.5 mph - N/A   Clear
12:13 PM 77.0 °F 53.6 °F 44% 29.85 in 10.0 mi West 8.1 mph - N/A   Clear
12:33 PM 78.8 °F 51.8 °F 39% 29.85 in 10.0 mi West 12.7 mph - N/A   Clear
12:53 PM 78.8 °F 51.8 °F 39% 29.84 in 10.0 mi West 9.2 mph - N/A   Clear
1:13 PM 80.6 °F 50.0 °F 34% 29.84 in 10.0 mi West 9.2 mph - N/A   Clear
1:33 PM 80.6 °F 48.2 °F 32% 29.84 in 10.0 mi West 8.1 mph - N/A   Clear
1:53 PM 82.4 °F 48.2 °F 30% 29.84 in 10.0 mi WSW 10.4 mph - N/A   Clear
2:13 PM 82.4 °F 42.8 °F 25% 29.84 in 10.0 mi NW 11.5 mph 16.1 mph N/A   Clear
2:33 PM 82.4 °F 44.6 °F 26% 29.84 in 10.0 mi WNW 11.5 mph - N/A   Clear
3:13 PM 84.2 °F 44.6 °F 25% 29.83 in 10.0 mi NW 9.2 mph - N/A   Clear
3:33 PM 84.2 °F 39.2 °F 20% 29.83 in 10.0 mi NNW 10.4 mph - N/A   Clear
3:53 PM 84.2 °F 35.6 °F 18% 29.83 in 10.0 mi NW 8.1 mph - N/A   Clear
4:13 PM 84.2 °F 35.6 °F 18% 29.82 in 10.0 mi NW 9.2 mph - N/A   Clear
4:33 PM 84.2 °F 37.4 °F 19% 29.82 in 10.0 mi NW 8.1 mph - N/A   Clear
4:53 PM 84.2 °F 37.4 °F 19% 29.82 in 10.0 mi NNW 6.9 mph - N/A   Clear
5:13 PM 84.2 °F 39.2 °F 20% 29.83 in 10.0 mi NW 9.2 mph - N/A   Clear
5:33 PM 84.2 °F 39.2 °F 20% 29.83 in 10.0 mi NNW 6.9 mph - N/A   Clear
5:53 PM 82.4 °F 39.2 °F 21% 29.82 in 10.0 mi NNW 5.8 mph - N/A   Clear
6:13 PM 82.4 °F 39.2 °F 21% 29.82 in 10.0 mi Calm Calm - N/A   Clear
6:33 PM 80.6 °F 42.8 °F 26% 29.82 in 10.0 mi Calm Calm - N/A   Clear
6:53 PM 78.8 °F 42.8 °F 28% 29.82 in 10.0 mi Calm Calm - N/A   Clear
7:13 PM 78.8 °F 42.8 °F 28% 29.81 in 10.0 mi Calm Calm - N/A   Clear
7:34 PM 77.0 °F 42.8 °F 29% 29.81 in 10.0 mi NNW 3.5 mph - N/A   Clear
7:53 PM 73.4 °F 46.4 °F 38% 29.80 in 10.0 mi NNW 4.6 mph - N/A   Clear
8:13 PM 71.6 °F 46.4 °F 41% 29.80 in 10.0 mi NNW 3.5 mph - N/A   Clear
8:34 PM 71.6 °F 48.2 °F 43% 29.80 in 10.0 mi Calm Calm - N/A   Clear
8:53 PM 68.0 °F 48.2 °F 49% 29.80 in 7.0 mi Calm Calm - N/A   Clear
9:13 PM 69.8 °F 48.2 °F 46% 29.80 in 10.0 mi North 3.5 mph - N/A   Clear
9:34 PM 68.0 °F 48.2 °F 49% 29.80 in 10.0 mi North 5.8 mph - N/A   Clear
9:53 PM 66.2 °F 50.0 °F 56% 29.80 in 10.0 mi North 4.6 mph - N/A   Clear
10:13 PM 66.2 °F 53.6 °F 64% 29.80 in 10.0 mi NNE 5.8 mph - N/A   Clear
10:53 PM 62.6 °F 55.4 °F 77% 29.84 in 10.0 mi South 5.8 mph - N/A   Clear
11:13 PM 66.2 °F 53.6 °F 64% 29.84 in 10.0 mi Calm Calm - N/A   Clear
11:34 PM 66.2 °F 53.6 °F 64% 29.82 in 10.0 mi ESE 4.6 mph - N/A   Clear
11:53 PM 64.4 °F 51.8 °F 64% 29.81 in 10.0 mi East 8.1 mph - N/A   Clear